Time;durP1;ratioP1;P1;durP2;ratioP2;P2;SDS_P1;SDS_P2;PMS_P1;PMS_P2;Temp;Humidity;BMP_temperature;BMP_pressure;BME280_temperature;BME280_humidity;BME280_pressure;Samples;Min_cycle;Max_cycle;Signal;HPM_P1;HPM_P2
2022/10/21 00:00:12;;;;;;;24.20;12.43;;;;;;;3.20;80.60;99093.87;1788891;79;25615;-63
2022/10/21 00:02:39;;;;;;;26.33;12.95;;;;;;;3.14;80.88;99100.57;1789156;79;25678;-63
2022/10/21 00:05:06;;;;;;;22.30;12.75;;;;;;;3.11;80.78;99101.63;1789236;80;25494;-63
2022/10/21 00:07:34;;;;;;;23.40;12.63;;;;;;;3.11;80.97;99102.98;1789136;79;25663;-63
2022/10/21 00:10:02;;;;;;;28.15;16.50;;;;;;;3.11;80.72;99109.20;1789139;80;28475;-63
2022/10/21 00:12:30;;;;;;;29.52;18.42;;;;;;;3.11;80.66;99108.41;1788762;80;27185;-63
2022/10/21 00:14:57;;;;;;;27.77;15.30;;;;;;;3.12;80.50;99123.05;1789324;80;25418;-63
2022/10/21 00:17:23;;;;;;;26.97;16.27;;;;;;;3.10;80.46;99121.11;1789214;79;25568;-63
2022/10/21 00:19:50;;;;;;;24.10;14.03;;;;;;;3.08;80.54;99112.41;1788999;79;25418;-63
2022/10/21 00:22:16;;;;;;;25.15;13.55;;;;;;;3.05;80.56;99116.98;1788800;79;27563;-63
2022/10/21 00:24:42;;;;;;;28.00;14.05;;;;;;;3.05;80.76;99112.12;1789626;79;25441;-63
2022/10/21 00:27:08;;;;;;;22.77;12.68;;;;;;;3.10;80.55;99104.03;1788791;79;25659;-63
2022/10/21 00:29:35;;;;;;;24.95;13.03;;;;;;;3.11;80.52;99100.28;1788939;79;25431;-63
2022/10/21 00:32:01;;;;;;;24.63;12.13;;;;;;;3.12;80.41;99092.42;1789550;80;25454;-63
2022/10/21 00:34:28;;;;;;;25.08;13.13;;;;;;;3.09;80.70;99088.87;1788771;79;27511;-63
2022/10/21 00:36:55;;;;;;;24.75;12.37;;;;;;;3.05;80.77;99091.25;1788820;80;25394;-63
2022/10/21 00:39:22;;;;;;;26.02;12.25;;;;;;;3.07;80.95;99089.13;1788829;79;25485;-63
2022/10/21 00:41:50;;;;;;;25.70;12.80;;;;;;;3.04;80.88;99088.80;1788920;79;25667;-63
2022/10/21 00:44:17;;;;;;;25.00;13.08;;;;;;;3.03;80.80;99085.81;1788891;80;25668;-63
2022/10/21 00:46:55;;;;;;;27.90;13.30;;;;;;;2.99;80.59;99082.27;1788852;79;27469;-63
2022/10/21 00:49:42;;;;;;;23.20;12.75;;;;;;;2.97;80.70;99080.89;1788789;79;25846;-63
2022/10/21 00:52:19;;;;;;;25.92;12.98;;;;;;;2.93;80.60;99070.29;1788850;79;25473;-63
2022/10/21 00:54:52;;;;;;;24.12;13.62;;;;;;;2.84;80.79;99065.83;1788760;79;27510;-63
2022/10/21 00:57:31;;;;;;;25.40;13.83;;;;;;;2.76;80.87;99072.50;1789336;79;25580;-63
2022/10/21 01:00:07;;;;;;;24.35;12.37;;;;;;;2.72;81.04;99062.73;1788810;79;27428;-62
2022/10/21 01:02:35;;;;;;;28.23;12.30;;;;;;;2.63;81.32;99056.94;1789086;80;25497;-63
2022/10/21 01:05:02;;;;;;;24.65;13.15;;;;;;;2.58;81.61;99041.98;1789182;80;25434;-63
2022/10/21 01:07:29;;;;;;;24.65;13.20;;;;;;;2.58;81.93;99043.34;1789264;80;25623;-62
2022/10/21 01:09:55;;;;;;;25.88;13.32;;;;;;;2.61;81.58;99044.19;1789163;79;25610;-62
2022/10/21 01:12:36;;;;;;;25.82;12.95;;;;;;;2.62;81.63;99038.25;1789042;80;27452;-63
2022/10/21 01:15:08;;;;;;;22.82;11.78;;;;;;;2.63;81.57;99040.70;1788881;79;32848;-63
2022/10/21 01:18:00;;;;;;;24.52;12.80;;;;;;;2.65;81.53;99035.05;1787864;80;25708;-63
2022/10/21 01:20:47;;;;;;;30.10;14.15;;;;;;;2.63;81.63;99035.82;1772599;80;25467;-63
2022/10/21 01:23:55;;;;;;;28.17;14.43;;;;;;;2.57;81.71;99028.70;1772270;81;25431;-62
2022/10/21 01:26:47;;;;;;;25.23;13.50;;;;;;;2.55;81.70;99037.08;1772343;81;28461;-62
2022/10/21 01:29:45;;;;;;;31.17;14.40;;;;;;;2.51;81.92;99037.30;1771074;80;27271;-62
2022/10/21 01:32:45;;;;;;;29.65;14.35;;;;;;;2.49;81.92;99034.02;1772513;80;25573;-62
2022/10/21 01:35:38;;;;;;;26.73;14.58;;;;;;;2.47;81.86;99033.44;1772697;79;25605;-62
2022/10/21 01:38:15;;;;;;;25.32;14.10;;;;;;;2.49;81.74;99040.78;1718845;83;25672;-62
2022/10/21 01:40:56;;;;;;;27.35;14.30;;;;;;;2.53;81.82;99043.81;1718896;83;27398;-62
2022/10/21 01:43:59;;;;;;;26.10;13.48;;;;;;;2.60;81.70;99043.09;1718609;83;25956;-62
2022/10/21 01:46:51;;;;;;;26.30;13.30;;;;;;;2.67;81.48;99040.20;1718898;83;26513;-62
2022/10/21 01:49:23;;;;;;;28.32;13.05;;;;;;;2.71;81.28;99038.63;1719069;83;25700;-62
2022/10/21 01:51:51;;;;;;;27.90;13.70;;;;;;;2.70;81.03;99032.38;1707943;83;25657;-62
2022/10/21 01:54:26;;;;;;;27.45;14.18;;;;;;;2.63;81.44;99038.53;1719117;83;27428;-62
2022/10/21 01:56:53;;;;;;;27.48;13.98;;;;;;;2.55;81.40;99033.54;1718895;83;25476;-62
2022/10/21 01:59:22;;;;;;;26.97;13.93;;;;;;;2.49;81.48;99030.78;1719026;83;25670;-62
2022/10/21 02:01:50;;;;;;;23.75;14.20;;;;;;;2.42;81.55;99024.72;1718763;83;25709;-62
2022/10/21 02:04:18;;;;;;;28.90;14.78;;;;;;;2.34;81.48;99027.88;1719259;83;25548;-62
2022/10/21 02:06:45;;;;;;;29.23;15.40;;;;;;;2.27;81.47;99025.89;1719149;83;28575;-62
2022/10/21 02:09:11;;;;;;;28.90;14.30;;;;;;;2.30;81.55;99034.86;1718986;83;26141;-62
2022/10/21 02:11:40;;;;;;;28.57;14.85;;;;;;;2.25;81.05;99020.18;1718846;83;25630;-62
2022/10/21 02:14:20;;;;;;;25.55;13.80;;;;;;;2.29;81.35;99017.80;1729697;81;25666;-62
2022/10/21 02:16:48;;;;;;;25.68;14.40;;;;;;;2.35;81.44;99020.03;1772802;79;25577;-62
2022/10/21 02:19:17;;;;;;;28.02;14.40;;;;;;;2.36;81.14;99007.61;1783032;80;27307;-62
2022/10/21 02:21:47;;;;;;;26.57;13.93;;;;;;;2.35;80.75;98996.52;1789146;79;25695;-62
2022/10/21 02:24:21;;;;;;;25.77;13.70;;;;;;;2.22;80.76;98998.24;1789227;80;25590;-62
2022/10/21 02:26:47;;;;;;;28.05;14.43;;;;;;;2.15;81.24;98994.36;1789428;79;25556;-62
2022/10/21 02:29:17;;;;;;;24.40;14.35;;;;;;;2.15;81.52;98986.77;1789070;79;25548;-62
2022/10/21 02:31:55;;;;;;;27.87;15.55;;;;;;;2.06;81.49;98989.92;1789134;79;27443;-62
2022/10/21 02:34:50;;;;;;;31.87;17.07;;;;;;;1.97;81.19;98989.53;1788526;79;25635;-62
2022/10/21 02:37:24;;;;;;;34.98;17.92;;;;;;;1.91;81.41;98997.80;1788898;79;25596;-62
2022/10/21 02:40:14;;;;;;;42.00;18.50;;;;;;;1.91;81.35;98989.69;1789012;79;25438;-62
2022/10/21 02:42:50;;;;;;;40.48;19.10;;;;;;;1.84;81.15;98996.09;1787089;79;25615;-62
2022/10/21 02:45:17;;;;;;;42.95;20.48;;;;;;;1.80;81.40;98988.72;1789231;79;27648;-63
2022/10/21 02:47:46;;;;;;;37.70;18.85;;;;;;;1.74;81.24;98986.48;1789120;80;25639;-63
2022/10/21 02:50:12;;;;;;;36.53;17.95;;;;;;;1.75;81.47;98982.18;1788705;79;25606;-63
2022/10/21 02:52:38;;;;;;;38.13;19.35;;;;;;;1.84;81.89;98984.48;1789192;79;25650;-63
2022/10/21 02:55:06;;;;;;;38.80;19.30;;;;;;;1.87;81.92;98987.48;1788859;80;25722;-63
2022/10/21 02:57:32;;;;;;;32.08;14.38;;;;;;;1.86;82.00;98976.40;1789115;79;27467;-63
2022/10/21 02:59:58;;;;;;;39.95;18.00;;;;;;;1.83;82.81;98971.48;1789286;79;25619;-63
2022/10/21 03:02:24;;;;;;;33.73;16.10;;;;;;;1.81;82.91;98957.95;1789492;79;25422;-63
2022/10/21 03:04:51;;;;;;;33.28;15.85;;;;;;;1.75;83.25;98962.44;1789265;80;25796;-63
2022/10/21 03:07:17;;;;;;;32.53;16.73;;;;;;;1.71;83.46;98960.78;1789357;79;25485;-63
2022/10/21 03:09:43;;;;;;;32.20;15.90;;;;;;;1.72;83.72;98961.58;1789221;79;28192;-63
2022/10/21 03:12:09;;;;;;;28.42;15.50;;;;;;;1.74;83.61;98960.29;1788943;80;25643;-63
2022/10/21 03:14:35;;;;;;;20.88;11.30;;;;;;;1.72;83.78;98958.36;1789331;79;25587;-63
2022/10/21 03:17:01;;;;;;;25.90;15.20;;;;;;;1.70;83.99;98954.27;1789567;79;25394;-63
2022/10/21 03:19:27;;;;;;;28.32;14.50;;;;;;;1.67;84.14;98957.47;1779649;80;25688;-63
2022/10/21 03:21:54;;;;;;;27.73;13.45;;;;;;;1.70;83.73;98952.92;1772807;81;27533;-63
2022/10/21 03:24:20;;;;;;;23.10;13.25;;;;;;;1.64;83.73;98947.95;1772225;81;25458;-63
2022/10/21 03:26:46;;;;;;;29.75;14.45;;;;;;;1.60;83.89;98953.05;1772723;81;25580;-63
2022/10/21 03:29:12;;;;;;;26.45;14.53;;;;;;;1.58;83.89;98940.31;1772667;80;25555;-63
2022/10/21 03:31:39;;;;;;;31.12;15.30;;;;;;;1.56;83.92;98944.34;1772350;79;25580;-63
2022/10/21 03:34:05;;;;;;;28.83;15.90;;;;;;;1.54;84.12;98952.69;1772718;81;27617;-63
2022/10/21 03:36:31;;;;;;;34.90;15.40;;;;;;;1.56;83.72;98949.73;1772562;80;25676;-63
2022/10/21 03:38:57;;;;;;;32.55;16.52;;;;;;;1.57;83.95;98942.73;1772692;80;25516;-63
2022/10/21 03:41:23;;;;;;;29.63;14.35;;;;;;;1.59;83.95;98935.74;1772721;81;25619;-63
2022/10/21 03:43:49;;;;;;;27.82;15.32;;;;;;;1.58;84.21;98934.91;1772803;81;25577;-63
2022/10/21 03:46:23;;;;;;;30.95;15.58;;;;;;;1.60;83.99;98931.45;1772783;81;27670;-63
2022/10/21 03:48:54;;;;;;;20.30;10.43;;;;;;;1.61;83.96;98931.72;1741924;82;25628;-63
2022/10/21 03:51:22;;;;;;;24.45;13.40;;;;;;;1.55;84.22;98933.26;1742001;82;25685;-63
2022/10/21 03:53:51;;;;;;;30.23;15.00;;;;;;;1.47;84.31;98935.28;1758717;81;25588;-63
2022/10/21 03:56:24;;;;;;;32.88;16.42;;;;;;;1.45;84.20;98937.44;1761311;81;25400;-63
2022/10/21 03:58:52;;;;;;;32.98;16.52;;;;;;;1.47;84.10;98933.14;1762645;80;27413;-63
2022/10/21 04:01:30;;;;;;;33.67;17.73;;;;;;;1.53;83.88;98934.86;1771797;81;25704;-63
2022/10/21 04:04:07;;;;;;;34.20;16.60;;;;;;;1.62;83.73;98931.20;1772452;79;25588;-63
2022/10/21 04:06:33;;;;;;;40.25;18.07;;;;;;;1.69;83.44;98935.89;1771769;80;25609;-63
2022/10/21 04:08:59;;;;;;;34.45;16.05;;;;;;;1.68;83.28;98939.66;1772401;81;25462;-63
2022/10/21 04:11:26;;;;;;;28.98;15.08;;;;;;;1.70;83.05;98938.06;1772278;79;29530;-63
2022/10/21 04:13:52;;;;;;;31.00;16.23;;;;;;;1.75;83.50;98945.70;1772754;81;25418;-63
2022/10/21 04:16:20;;;;;;;32.13;15.60;;;;;;;1.81;83.12;98944.44;1772281;81;25600;-63
2022/10/21 04:18:47;;;;;;;28.35;16.12;;;;;;;1.76;82.65;98939.78;1774671;79;25450;-63
2022/10/21 04:21:14;;;;;;;32.38;17.75;;;;;;;1.62;82.73;98941.45;1786970;79;25425;-64
2022/10/21 04:23:40;;;;;;;36.80;18.50;;;;;;;1.59;82.95;98936.57;1786954;79;27543;-62
2022/10/21 04:26:19;;;;;;;75.42;32.40;;;;;;;1.50;83.00;98936.70;1786624;80;25504;-62
2022/10/21 04:28:48;;;;;;;45.10;23.67;;;;;;;1.45;83.12;98933.38;1786942;79;25655;-62
2022/10/21 04:31:22;;;;;;;36.33;20.50;;;;;;;1.39;82.85;98937.06;1786303;79;25783;-63
2022/10/21 04:33:51;;;;;;;32.30;18.52;;;;;;;1.39;82.65;98934.37;1786435;79;25417;-63
2022/10/21 04:36:31;;;;;;;40.10;21.02;;;;;;;1.40;82.59;98938.69;1786725;79;27420;-63
2022/10/21 04:38:55;;;;;;;36.42;19.00;;;;;;;1.33;82.52;98934.83;1784884;80;25639;-63
2022/10/21 04:41:21;;;;;;;67.80;28.52;;;;;;;1.31;82.78;98933.41;1786308;80;25497;-63
2022/10/21 04:43:47;;;;;;;158.25;56.55;;;;;;;1.35;83.28;98930.50;1786414;80;25477;-63
2022/10/21 04:46:15;;;;;;;153.78;52.05;;;;;;;1.43;83.17;98923.88;1786792;79;25418;-63
2022/10/21 04:48:42;;;;;;;142.13;49.50;;;;;;;1.46;82.82;98920.16;1786329;79;27834;-63
2022/10/21 04:51:08;;;;;;;122.42;45.38;;;;;;;1.51;82.65;98923.47;1786498;80;25600;-63
2022/10/21 04:53:35;;;;;;;100.40;38.90;;;;;;;1.46;82.14;98930.96;1786720;80;25414;-63
2022/10/21 04:56:01;;;;;;;82.85;33.78;;;;;;;1.39;81.84;98933.02;1786378;80;25577;-63
2022/10/21 04:58:27;;;;;;;91.32;35.90;;;;;;;1.37;82.35;98926.51;1786713;79;25684;-63
2022/10/21 05:00:53;;;;;;;94.20;35.83;;;;;;;1.45;82.39;98919.05;1786677;79;27489;-63
2022/10/21 05:03:20;;;;;;;103.27;39.00;;;;;;;1.51;82.47;98920.77;1786563;79;25600;-63
2022/10/21 05:05:51;;;;;;;109.35;41.70;;;;;;;1.53;81.93;98907.84;1786386;80;25644;-63
2022/10/21 05:08:19;;;;;;;110.95;41.75;;;;;;;1.54;82.10;98918.92;1786532;80;25618;-63
2022/10/21 05:10:45;;;;;;;107.58;41.02;;;;;;;1.45;82.00;98923.10;1786746;79;25447;-63
2022/10/21 05:13:11;;;;;;;94.10;37.33;;;;;;;1.45;82.38;98918.53;1786350;79;29463;-63
2022/10/21 05:15:39;;;;;;;99.20;37.90;;;;;;;1.42;82.26;98923.59;1786169;80;43002;-62
2022/10/21 05:18:05;;;;;;;122.07;46.68;;;;;;;1.38;82.30;98919.20;1786652;80;25689;-62
2022/10/21 05:20:31;;;;;;;99.15;40.63;;;;;;;1.33;82.09;98916.45;1775416;80;25787;-63
2022/10/21 05:22:57;;;;;;;102.80;43.45;;;;;;;1.30;82.28;98915.59;1772338;80;25652;-63
2022/10/21 05:25:24;;;;;;;92.02;38.75;;;;;;;1.37;82.60;98920.28;1772196;80;27337;-63
2022/10/21 05:28:07;;;;;;;94.00;40.58;;;;;;;1.46;82.36;98906.66;1772496;81;25494;-63
2022/10/21 05:30:44;;;;;;;95.32;43.13;;;;;;;1.54;82.90;98912.17;1772304;79;25827;-63
2022/10/21 05:33:15;;;;;;;95.35;40.90;;;;;;;1.57;82.19;98921.66;1770282;80;25395;-63
2022/10/21 05:36:08;;;;;;;74.05;35.10;;;;;;;1.51;82.48;98932.92;1772404;81;25606;-64
2022/10/21 05:38:31;;;;;;;78.02;33.30;;;;;;;1.48;82.98;98923.96;1770088;81;27075;-63
2022/10/21 05:40:59;;;;;;;87.33;38.45;;;;;;;1.43;83.17;98914.42;1772134;81;25605;-63
2022/10/21 05:43:26;;;;;;;73.12;33.05;;;;;;;1.51;83.59;98923.47;1772316;80;25581;-63
2022/10/21 05:45:53;;;;;;;54.50;27.13;;;;;;;1.67;83.53;98922.34;1772223;81;25586;-63
2022/10/21 05:48:20;;;;;;;51.88;27.32;;;;;;;1.81;83.14;98910.66;1772615;80;25502;-63
2022/10/21 05:50:47;;;;;;;41.35;20.40;;;;;;;1.95;83.22;98925.95;1772278;80;27779;-63
2022/10/21 05:53:13;;;;;;;37.73;19.15;;;;;;;2.02;83.13;98909.56;1772499;80;25657;-63
2022/10/21 05:55:40;;;;;;;31.30;15.50;;;;;;;2.06;83.29;98914.75;1772279;81;25690;-63
2022/10/21 05:58:06;;;;;;;30.68;16.30;;;;;;;2.06;83.55;98916.92;1772074;80;25477;-63
2022/10/21 06:00:32;;;;;;;30.32;16.30;;;;;;;2.07;83.71;98922.61;1772576;81;25606;-64
2022/10/21 06:02:59;;;;;;;30.37;17.02;;;;;;;2.10;84.00;98932.13;1772765;79;27439;-64
2022/10/21 06:05:25;;;;;;;36.48;18.85;;;;;;;2.17;83.74;98934.09;1772581;81;25431;-64
2022/10/21 06:07:52;;;;;;;37.05;18.65;;;;;;;2.20;83.77;98929.54;1772558;81;25604;-64
2022/10/21 06:10:19;;;;;;;37.70;17.95;;;;;;;2.27;83.52;98923.12;1772549;81;25621;-64
2022/10/21 06:12:45;;;;;;;37.53;18.17;;;;;;;2.28;83.38;98906.65;1772286;81;25585;-64
2022/10/21 06:15:11;;;;;;;32.50;17.23;;;;;;;2.34;83.48;98915.63;1772640;80;27357;-64
2022/10/21 06:17:38;;;;;;;34.78;18.50;;;;;;;2.40;83.35;98915.15;1772493;80;25410;-64
2022/10/21 06:20:06;;;;;;;34.45;17.77;;;;;;;2.40;83.11;98926.80;1772543;80;25644;-64
2022/10/21 06:22:32;;;;;;;37.63;17.27;;;;;;;2.40;83.21;98929.50;1772701;81;25621;-64
2022/10/21 06:24:59;;;;;;;38.92;18.37;;;;;;;2.44;83.47;98921.16;1772276;80;25656;-64
2022/10/21 06:27:25;;;;;;;37.93;18.62;;;;;;;2.55;83.42;98914.50;1772374;81;27563;-64
2022/10/21 06:29:51;;;;;;;35.80;18.15;;;;;;;2.58;83.42;98916.17;1772353;81;25668;-64
2022/10/21 06:32:18;;;;;;;33.80;17.77;;;;;;;2.62;83.33;98925.41;1772302;81;25608;-64
2022/10/21 06:34:44;;;;;;;31.48;17.52;;;;;;;2.61;83.23;98924.30;1772271;81;25599;-64
2022/10/21 06:37:10;;;;;;;33.30;18.02;;;;;;;2.59;83.41;98920.50;1772410;81;25416;-64
2022/10/21 06:39:37;;;;;;;35.30;18.50;;;;;;;2.66;83.59;98916.25;1772350;80;27439;-64
2022/10/21 06:42:03;;;;;;;36.10;16.40;;;;;;;2.80;83.84;98914.48;1772649;80;25581;-64
2022/10/21 06:44:30;;;;;;;36.60;19.42;;;;;;;2.96;83.86;98912.73;1772321;81;25458;-64
2022/10/21 06:46:56;;;;;;;35.05;19.07;;;;;;;3.13;83.45;98913.44;1772375;81;25418;-64
2022/10/21 06:49:23;;;;;;;31.25;18.42;;;;;;;3.31;83.19;98911.95;1772477;80;25411;-64
2022/10/21 06:51:49;;;;;;;35.80;19.45;;;;;;;3.49;82.75;98914.79;1772513;81;27562;-64
2022/10/21 06:54:15;;;;;;;35.58;19.27;;;;;;;3.68;82.54;98901.62;1772162;81;25474;-64
2022/10/21 06:56:42;;;;;;;31.75;17.62;;;;;;;3.91;82.27;98887.93;1772296;80;25584;-65
2022/10/21 06:59:09;;;;;;;30.62;17.27;;;;;;;4.12;82.22;98889.63;1772573;79;25602;-65
2022/10/21 07:01:36;;;;;;;33.78;16.52;;;;;;;4.34;81.83;98879.13;1772634;80;25430;-65
2022/10/21 07:04:05;;;;;;;33.38;18.10;;;;;;;4.52;81.38;98874.31;1772679;79;26809;-64
2022/10/21 07:06:32;;;;;;;31.68;16.42;;;;;;;4.70;81.51;98874.88;1772561;81;25615;-65
2022/10/21 07:08:59;;;;;;;34.20;18.10;;;;;;;4.92;80.74;98867.83;1772774;79;25434;-65
2022/10/21 07:11:28;;;;;;;27.30;14.63;;;;;;;5.04;80.99;98871.66;1772671;79;25671;-64
2022/10/21 07:13:54;;;;;;;27.75;16.00;;;;;;;5.17;80.24;98876.24;1772793;81;25434;-65
2022/10/21 07:16:28;;;;;;;32.58;16.42;;;;;;;5.25;80.45;98870.28;1772311;80;27398;-64
2022/10/21 07:18:55;;;;;;;35.48;18.57;;;;;;;5.39;80.45;98867.25;1772029;80;25490;-64
2022/10/21 07:21:26;;;;;;;33.60;17.57;;;;;;;5.61;80.55;98868.85;1784102;79;25485;-65
2022/10/21 07:23:55;;;;;;;35.00;17.07;;;;;;;5.87;79.54;98866.06;1786886;79;25577;-64
2022/10/21 07:26:23;;;;;;;34.43;18.15;;;;;;;6.12;79.19;98861.66;1786760;79;25428;-64
2022/10/21 07:28:51;;;;;;;32.70;18.15;;;;;;;6.32;78.50;98855.84;1786690;79;28233;-64
2022/10/21 07:31:19;;;;;;;31.70;17.23;;;;;;;6.48;78.54;98851.67;1786454;80;25397;-65
2022/10/21 07:33:47;;;;;;;28.57;16.57;;;;;;;6.67;78.24;98853.73;1786730;80;25592;-65
2022/10/21 07:36:18;;;;;;;32.25;17.25;;;;;;;6.78;77.78;98841.13;1786648;80;25603;-64
2022/10/21 07:38:45;;;;;;;;;;;;;;;6.86;77.43;98845.69;1789288;79;25629;-64
2022/10/21 07:41:22;;;;;;;31.10;15.13;;;;;;;6.95;77.62;98845.89;1786664;80;27671;-64
2022/10/21 07:43:49;;;;;;;29.77;17.10;;;;;;;6.94;77.09;98833.38;1785712;79;25419;-64
2022/10/21 07:46:18;;;;;;;36.50;18.20;;;;;;;6.95;77.59;98837.72;1786699;80;25627;-64
2022/10/21 07:48:44;;;;;;;35.50;18.32;;;;;;;7.06;77.41;98828.91;1786890;80;26062;-64
2022/10/21 07:51:14;;;;;;;33.78;17.92;;;;;;;7.13;77.48;98825.30;1786363;79;25458;-64
2022/10/21 07:53:41;;;;;;;32.63;18.57;;;;;;;7.24;77.21;98821.92;1786874;80;27461;-64
2022/10/21 07:56:15;;;;;;;36.05;18.45;;;;;;;7.35;77.09;98819.37;1786233;80;25614;-63
2022/10/21 07:58:43;;;;;;;30.88;17.98;;;;;;;7.51;77.33;98821.92;1760861;80;25629;-63
2022/10/21 08:01:10;;;;;;;28.55;16.05;;;;;;;7.75;77.01;98808.85;1755325;80;25774;-64
2022/10/21 08:03:38;;;;;;;28.98;17.07;;;;;;;7.83;75.58;98815.58;1755163;81;25621;-64
2022/10/21 08:06:06;;;;;;;28.80;16.20;;;;;;;7.96;75.98;98816.77;1755577;80;27286;-63
2022/10/21 08:08:34;;;;;;;29.82;15.98;;;;;;;8.15;75.30;98815.45;1755383;81;26079;-64
2022/10/21 08:11:02;;;;;;;25.65;16.45;;;;;;;8.26;74.71;98806.58;1755590;80;25683;-64
2022/10/21 08:13:30;;;;;;;30.52;16.20;;;;;;;8.36;74.80;98805.59;1755454;80;26183;-64
2022/10/21 08:15:58;;;;;;;24.50;14.85;;;;;;;8.47;74.51;98798.07;1755306;81;25403;-64
2022/10/21 08:18:25;;;;;;;25.75;14.83;;;;;;;8.51;74.39;98784.08;1762953;80;27358;-64
2022/10/21 08:20:51;;;;;;;22.80;12.95;;;;;;;8.57;74.30;98780.19;1762089;80;25449;-64
2022/10/21 08:23:21;;;;;;;27.10;14.43;;;;;;;8.59;72.80;98781.25;1786475;80;25620;-64
2022/10/21 08:25:51;;;;;;;20.62;12.65;;;;;;;8.60;73.11;98770.03;1786553;80;25677;-64
2022/10/21 08:28:19;;;;;;;24.43;14.43;;;;;;;8.65;73.08;98774.06;1785633;80;25610;-64
2022/10/21 08:30:46;;;;;;;25.23;12.82;;;;;;;8.76;72.88;98769.24;1786351;80;27596;-64
2022/10/21 08:33:13;;;;;;;21.35;13.15;;;;;;;8.93;72.81;98776.61;1786556;80;25672;-64
2022/10/21 08:35:41;;;;;;;22.22;13.13;;;;;;;9.03;72.01;98770.95;1786554;79;25660;-64
2022/10/21 08:38:08;;;;;;;21.07;12.15;;;;;;;9.14;71.81;98763.39;1786383;80;25652;-64
2022/10/21 08:40:48;;;;;;;22.58;13.03;;;;;;;9.22;71.55;98764.62;1786271;80;25676;-64
2022/10/21 08:43:22;;;;;;;21.10;13.38;;;;;;;9.29;71.60;98759.55;1786633;80;28267;-64
2022/10/21 08:46:07;;;;;;;23.77;13.50;;;;;;;9.43;71.69;98750.54;1786087;80;27218;-64
2022/10/21 08:48:48;;;;;;;21.87;12.50;;;;;;;9.51;71.01;98742.45;1786744;80;25370;-64
2022/10/21 08:51:32;;;;;;;28.52;14.83;;;;;;;9.52;70.55;98743.25;1786437;80;25478;-63
2022/10/21 08:54:03;;;;;;;27.65;14.47;;;;;;;9.62;71.38;98738.14;1786590;79;25651;-63
2022/10/21 08:56:31;;;;;;;23.42;13.90;;;;;;;9.74;71.22;98730.77;1785316;80;28373;-63
2022/10/21 08:58:58;;;;;;;22.42;12.95;;;;;;;9.78;70.30;98727.66;1786362;80;25612;-64
2022/10/21 09:01:38;;;;;;;21.20;13.38;;;;;;;9.77;70.63;98724.14;1786672;80;25586;-63
2022/10/21 09:04:25;;;;;;;24.52;14.23;;;;;;;9.76;70.35;98725.81;1782187;80;35026;-63
2022/10/21 09:07:15;;;;;;;25.43;15.00;;;;;;;9.78;70.83;98716.17;1786354;80;25471;-63
2022/10/21 09:09:49;;;;;;;22.85;13.15;;;;;;;9.85;71.01;98726.71;1786348;80;27439;-64
2022/10/21 09:12:28;;;;;;;24.18;14.47;;;;;;;9.95;70.74;98722.92;1786007;80;25592;-64
2022/10/21 09:15:15;;;;;;;30.23;16.48;;;;;;;10.02;70.81;98723.88;1786057;80;25664;-64
2022/10/21 09:18:01;;;;;;;20.12;13.08;;;;;;;10.09;70.64;98713.30;1772892;80;26129;-64
2022/10/21 09:21:11;;;;;;;26.50;15.45;;;;;;;10.17;69.95;98708.45;1773838;80;25702;-64
2022/10/21 09:24:01;;;;;;;24.98;13.43;;;;;;;10.31;70.71;98705.42;1773840;80;28323;-63
2022/10/21 09:26:32;;;;;;;23.70;14.43;;;;;;;10.55;69.78;98701.02;1773777;80;25513;-63
2022/10/21 09:29:04;;;;;;;21.33;11.97;;;;;;;10.72;69.98;98690.73;1773686;80;25707;-63
2022/10/21 09:31:30;;;;;;;21.77;13.70;;;;;;;10.85;69.26;98682.73;1773101;80;25571;-63
2022/10/21 09:34:00;;;;;;;23.57;14.40;;;;;;;10.92;69.47;98674.86;1773871;80;25670;-64
2022/10/21 09:36:37;;;;;;;22.30;14.83;;;;;;;10.95;69.25;98671.49;1774320;80;27382;-64
2022/10/21 09:39:16;;;;;;;20.88;12.15;;;;;;;11.04;69.71;98676.45;1774043;80;25525;-64
2022/10/21 09:41:48;;;;;;;26.33;15.05;;;;;;;11.07;68.50;98679.11;1773864;80;25481;-64
2022/10/21 09:44:19;;;;;;;29.32;17.10;;;;;;;11.09;69.28;98674.13;1774112;80;25740;-63
2022/10/21 09:46:49;;;;;;;36.75;18.17;;;;;;;11.13;69.33;98688.00;1773916;80;25695;-63
2022/10/21 09:49:36;;;;;;;22.67;13.30;;;;;;;11.18;69.74;98671.41;1773881;80;27399;-64
2022/10/21 09:52:05;;;;;;;21.85;12.37;;;;;;;11.17;69.04;98674.71;1774091;80;25784;-63
2022/10/21 09:54:40;;;;;;;21.15;13.45;;;;;;;11.17;68.89;98673.92;1779593;80;25501;-64
2022/10/21 09:57:20;;;;;;;22.95;13.62;;;;;;;11.20;69.14;98668.36;1786670;80;25571;-63
2022/10/21 09:59:59;;;;;;;19.48;11.05;;;;;;;11.21;69.50;98672.16;1786836;80;25411;-64
2022/10/21 10:02:32;;;;;;;24.20;12.93;;;;;;;11.26;68.87;98679.44;1786745;80;27596;-64
2022/10/21 10:05:04;;;;;;;22.48;10.43;;;;;;;11.33;69.01;98668.80;1786723;80;25640;-63
2022/10/21 10:07:35;;;;;;;15.35;9.45;;;;;;;11.46;68.55;98676.67;1785932;80;25549;-64
2022/10/21 10:10:07;;;;;;;12.45;8.58;;;;;;;11.61;67.91;98668.55;1786598;78;25628;-64
2022/10/21 10:12:33;;;;;;;9.03;5.85;;;;;;;11.77;66.36;98680.41;1779221;80;25471;-64
2022/10/21 10:15:14;;;;;;;13.70;8.30;;;;;;;11.94;65.92;98672.76;1786481;80;27475;-64
2022/10/21 10:17:40;;;;;;;11.68;6.28;;;;;;;12.19;67.55;98667.63;1783586;80;27263;-64
2022/10/21 10:20:18;;;;;;;8.33;5.30;;;;;;;12.64;64.92;98665.61;1786372;80;25735;-64
2022/10/21 10:22:58;;;;;;;10.32;5.78;;;;;;;12.99;62.49;98664.12;1786291;80;27600;-64
2022/10/21 10:25:28;;;;;;;10.60;5.70;;;;;;;13.15;62.01;98658.86;1786448;80;25428;-63
2022/10/21 10:28:03;;;;;;;8.33;5.65;;;;;;;13.31;62.87;98661.06;1786968;80;28367;-64
2022/10/21 10:30:37;;;;;;;8.25;4.00;;;;;;;13.45;63.16;98665.52;1786588;80;25636;-64
2022/10/21 10:33:36;;;;;;;6.47;4.08;;;;;;;13.41;59.61;98658.48;1786682;80;25485;-64
2022/10/21 10:36:20;;;;;;;7.53;5.10;;;;;;;13.32;59.59;98652.24;1786332;80;25806;-63
2022/10/21 10:38:56;;;;;;;7.40;4.67;;;;;;;13.35;60.88;98640.54;1785660;80;25582;-64
2022/10/21 10:41:36;;;;;;;8.55;5.70;;;;;;;13.39;61.79;98645.64;1786305;80;27460;-63
2022/10/21 10:44:29;;;;;;;11.48;5.55;;;;;;;13.39;61.79;98645.64;1786394;80;25743;-64
2022/10/21 10:46:59;;;;;;;11.45;6.08;;;;;;;13.47;61.26;98640.63;1786284;79;25462;-63
2022/10/21 10:49:27;;;;;;;9.35;5.78;;;;;;;13.51;62.03;98642.19;1786703;79;26051;-63
2022/10/21 10:52:20;;;;;;;9.23;6.70;;;;;;;13.53;60.53;98650.34;1756326;80;25744;-64
2022/10/21 10:54:45;;;;;;;12.13;7.40;;;;;;;13.54;61.54;98649.22;1786344;80;26876;-64
2022/10/21 10:57:25;;;;;;;10.20;6.87;;;;;;;13.62;61.86;98648.11;1785762;80;25470;-64
2022/10/21 10:59:56;;;;;;;12.18;7.95;;;;;;;13.60;61.27;98645.69;1784644;80;25526;-64
2022/10/21 11:02:43;;;;;;;14.05;8.93;;;;;;;13.61;61.93;98623.89;1780920;80;26133;-64
2022/10/21 11:05:44;;;;;;;14.78;9.18;;;;;;;13.61;61.93;98623.89;1785155;80;25704;-64
2022/10/21 11:08:22;;;;;;;12.30;8.53;;;;;;;13.70;62.19;98632.08;1784672;80;27404;-64
2022/10/21 11:11:08;;;;;;;12.18;7.12;;;;;;;13.74;61.64;98632.23;1784994;80;25422;-63
2022/10/21 11:13:37;;;;;;;13.28;7.53;;;;;;;13.77;59.98;98615.85;1683674;84;25669;-64
2022/10/21 11:16:44;;;;;;;15.38;7.87;;;;;;;13.72;60.84;98607.78;1683705;85;25835;-63
2022/10/21 11:19:22;;;;;;;13.80;7.97;;;;;;;13.73;60.34;98601.12;1683538;84;25516;-64
2022/10/21 11:21:52;;;;;;;11.08;6.45;;;;;;;13.85;60.69;98599.02;1683832;85;27443;-63
2022/10/21 11:24:45;;;;;;;10.08;6.75;;;;;;;14.01;57.80;98607.45;1684934;85;27176;-63
2022/10/21 11:27:43;;;;;;;13.30;8.00;;;;;;;14.09;57.93;98600.25;1685688;85;25556;-65
2022/10/21 11:30:22;;;;;;;12.60;7.78;;;;;;;14.36;59.22;98587.59;1685761;84;26428;-64
2022/10/21 11:33:12;;;;;;;15.80;7.65;;;;;;;14.83;56.88;98583.67;1685992;85;25765;-64
2022/10/21 11:36:08;;;;;;;9.55;6.10;;;;;;;15.09;56.51;98577.55;1685928;85;27457;-64
2022/10/21 11:39:01;;;;;;;11.25;6.50;;;;;;;15.36;54.40;98567.74;1685928;85;25457;-64
2022/10/21 11:41:41;;;;;;;9.93;6.15;;;;;;;15.64;54.33;98566.17;1685721;85;25769;-64
2022/10/21 11:44:32;;;;;;;14.00;7.92;;;;;;;15.69;52.36;98561.80;1685445;85;25705;-64
2022/10/21 11:47:31;;;;;;;9.98;6.40;;;;;;;15.71;54.23;98547.63;1686145;84;25651;-64